Deerfield Beach, FL (33441)

11:12 AM EDT on September 25, 2016 (GMT -0400)
Shorewood ,DEERFIELD Beach,Fl | | Change Station

Elev 20 ft 26.30 °N, 80.10 °W | Updated 58 seconds ago

Heavy Thunderstorms and Rain
Heavy Thunderstorm Rain Fog
74.8 °F
Feels Like 74 °F
N
3.0
Wind Variable Wind from NE

Today
High -- | Low -- °F
--% Chance of Precip.
Yesterday
High -- | Low -- °F
Precip. -- in
Pressure 30.07 in
Visibility 0.5 miles
Clouds
Heat Index 74 °F
Dew Point 71 °F
Humidity 91%
Rainfall 1.09 in
Snow Depth Not available.
7:10 AM 7:12 PM
Waning Crescent, 27% visible
SPECI KPMP 251510Z 10013KT 1/2SM +TSRA FG VV013 24/23 A3007 RMK AO2 LTG DSNT SE TSE1454B04 P0006 T02440233
Pressure 30.07 in
Visibility 0.5 miles
Clouds
Heat Index 74 °F
Dew Point 71 °F
Humidity 91%
Rainfall 1.09 in
Snow Depth Not available.
7:10 AM 7:12 PM
Waning Crescent, 27% visible
SPECI KPMP 251510Z 10013KT 1/2SM +TSRA FG VV013 24/23 A3007 RMK AO2 LTG DSNT SE TSE1454B04 P0006 T02440233

10-Day Weather Forecast

Almanac

Astronomy

Sep. 25, 2016 Rise Set
Actual Time
Civil Twilight
Nautical Twilight
Astronomical Twilight
Moon
Length of Visible Light
Length of Day
Tomorrow will be .
, % of the Moon is Illuminated

Today's Extremes

State Highs State Lows

Community

WunderPhotos

Upload Photos

1,941,629 photos uploaded!

WunderBlog® & News

Nearby

Air Quality

  Air Quality AQ Index Pollutant
Not available.

Snow Depth

Station Depth Elevation

Earthquake Activity

City Distance Mag. Time & Date
Minimum magnitude displayed is 2.5.

Coastal Water Temperatures

Place Temperature

Stations

Nearby Weather Stations

Station Location Temp. Windchill Dew Point Humidity Wind Precip. Elev Updated Type
                   

Watches & Warnings

There are currently no watches in effect.